Powell, Texas
Current Conditions -  °F | °C
As of 5:53 PM on Friday 24 Oct 2014 (Local Time) from KCRS Reporting Station
Clear Clear  
Wind Chill: 80°   Ceiling: Unl
Heat Index: 81°   Visibility: 10mi
Dew Point: 59°   Wind: 7mph
Humidity: 48%   Direction: 160°SSE
Pressure: 30.1"   Gusts: NA
Location:  32.12°N, 96.32°W
Report Text: KCRS 242253Z AUTO 16006KT 10SM CLR 27/15 A3010 RMK AO2 SLP187 T02670150
Loading
Personal Weather Stations






























Interactive Weather Map New forecast layout! Learn more

10-Day Weather Forecast

Advertisements
Track Severe Weather on mobile